createdAt,value
2023-01-19T00:00:59.530Z,12.84
2023-01-19T00:03:26.634Z,12.88
2023-01-19T00:05:54.194Z,12.89
2023-01-19T00:08:21.345Z,12.93
2023-01-19T00:10:51.889Z,12.95
2023-01-19T00:13:19.386Z,12.92
2023-01-19T00:15:47.301Z,12.92
2023-01-19T00:18:14.561Z,12.93
2023-01-19T00:20:42.348Z,12.92
2023-01-19T00:23:09.802Z,12.94
2023-01-19T00:25:42.907Z,12.93
2023-01-19T00:28:16.504Z,12.93
2023-01-19T00:30:44.495Z,12.94
2023-01-19T00:33:16.235Z,12.97
2023-01-19T00:35:43.911Z,13.02
2023-01-19T00:38:12.612Z,13.00
2023-01-19T00:40:39.826Z,13.01
2023-01-19T00:43:06.818Z,13.03
2023-01-19T00:45:34.101Z,13.06
2023-01-19T00:48:01.482Z,13.05
2023-01-19T00:50:30.126Z,13.08
2023-01-19T00:53:01.270Z,13.10
2023-01-19T00:55:29.387Z,13.08
2023-01-19T00:57:56.911Z,13.04
2023-01-19T01:00:25.389Z,13.03
2023-01-19T01:02:53.926Z,13.01
2023-01-19T01:05:22.735Z,13.02
2023-01-19T01:07:50.826Z,13.07
2023-01-19T01:10:23.437Z,13.11
2023-01-19T01:12:55.529Z,13.12
2023-01-19T01:15:38.226Z,13.16
2023-01-19T01:18:23.244Z,13.16
2023-01-19T01:20:50.240Z,13.14
2023-01-19T01:23:23.177Z,13.12
2023-01-19T01:25:50.292Z,13.14
2023-01-19T01:28:17.268Z,13.16
2023-01-19T01:30:44.308Z,13.09
2023-01-19T01:33:40.670Z,13.07
2023-01-19T01:36:09.468Z,13.07
2023-01-19T01:38:51.493Z,13.04
2023-01-19T01:41:19.716Z,13.05
2023-01-19T01:43:58.374Z,13.07
2023-01-19T01:46:27.062Z,13.04
2023-01-19T01:49:08.022Z,13.00
2023-01-19T01:51:40.535Z,13.07
2023-01-19T01:54:26.661Z,13.10
2023-01-19T01:56:57.737Z,13.12
2023-01-19T01:59:41.671Z,13.14
2023-01-19T02:02:34.898Z,13.09
2023-01-19T02:05:08.073Z,13.12
2023-01-19T02:08:04.616Z,13.15
2023-01-19T02:10:50.787Z,13.17
2023-01-19T02:13:21.467Z,13.17
2023-01-19T02:15:58.005Z,13.19
2023-01-19T02:18:28.697Z,13.23
2023-01-19T02:21:43.125Z,13.21
2023-01-19T02:24:11.047Z,13.21
2023-01-19T02:26:44.471Z,13.18
2023-01-19T02:29:18.681Z,13.20
2023-01-19T02:31:46.057Z,13.19
2023-01-19T02:34:17.138Z,13.24
2023-01-19T02:37:06.883Z,13.27
2023-01-19T02:39:39.379Z,13.26
2023-01-19T02:42:15.659Z,13.31
2023-01-19T02:44:47.078Z,13.30
2023-01-19T02:47:14.301Z,13.32
2023-01-19T02:49:41.257Z,13.34
2023-01-19T02:52:17.843Z,13.35
2023-01-19T02:54:58.225Z,13.34
2023-01-19T02:58:10.064Z,13.36
2023-01-19T03:00:58.666Z,13.35
2023-01-19T03:03:46.472Z,13.34
2023-01-19T03:06:33.757Z,13.32
2023-01-19T03:09:32.700Z,13.30
2023-01-19T03:12:29.352Z,13.29
2023-01-19T03:15:02.495Z,13.30
2023-01-19T03:17:32.755Z,13.27
2023-01-19T03:20:00.490Z,13.23
2023-01-19T03:22:29.858Z,13.22
2023-01-19T03:25:01.268Z,13.27
2023-01-19T03:27:41.286Z,13.32
2023-01-19T03:30:13.448Z,13.32
2023-01-19T03:32:48.509Z,13.32
2023-01-19T03:35:18.461Z,13.33
2023-01-19T03:37:48.730Z,13.35
2023-01-19T03:40:17.227Z,13.32
2023-01-19T03:42:45.286Z,13.32
2023-01-19T03:45:13.869Z,13.34
2023-01-19T03:47:41.529Z,13.31
2023-01-19T03:50:14.554Z,13.28
2023-01-19T03:52:41.431Z,13.28
2023-01-19T03:55:09.935Z,13.30
2023-01-19T03:57:37.506Z,13.27
2023-01-19T04:00:05.202Z,13.28
2023-01-19T04:02:39.195Z,13.28
2023-01-19T04:05:06.869Z,13.26
2023-01-19T04:07:33.867Z,13.24
2023-01-19T04:10:00.909Z,13.24
2023-01-19T04:12:27.806Z,13.29
2023-01-19T04:14:54.791Z,13.27
2023-01-19T04:17:21.728Z,13.22
2023-01-19T04:19:48.625Z,13.24
2023-01-19T04:22:15.547Z,13.26
2023-01-19T04:24:42.539Z,13.28
2023-01-19T04:27:09.600Z,13.29
2023-01-19T04:29:36.524Z,13.30
2023-01-19T04:32:03.657Z,13.32
2023-01-19T04:34:30.620Z,13.39
2023-01-19T04:36:57.654Z,13.42
2023-01-19T04:39:24.728Z,13.44
2023-01-19T04:41:54.699Z,13.45
2023-01-19T04:44:21.671Z,13.47
2023-01-19T04:46:48.846Z,13.45
2023-01-19T04:49:15.812Z,13.48
2023-01-19T04:51:42.851Z,13.50
2023-01-19T04:54:10.176Z,13.51
2023-01-19T04:56:37.234Z,13.50
2023-01-19T04:59:04.314Z,13.52
2023-01-19T05:01:31.368Z,13.53
2023-01-19T05:04:03.787Z,13.57
2023-01-19T05:06:30.977Z,13.62
2023-01-19T05:08:58.037Z,13.60
2023-01-19T05:11:25.285Z,13.59
2023-01-19T05:13:53.057Z,13.61
2023-01-19T05:16:20.082Z,13.63
2023-01-19T05:18:47.101Z,13.59
2023-01-19T05:21:14.555Z,13.54
2023-01-19T05:23:41.853Z,13.52
2023-01-19T05:26:10.340Z,13.48
2023-01-19T05:28:38.199Z,13.47
2023-01-19T05:31:05.556Z,13.44
2023-01-19T05:33:32.591Z,13.44
2023-01-19T05:35:59.599Z,13.42
2023-01-19T05:38:35.159Z,13.45
2023-01-19T05:41:02.872Z,13.40
2023-01-19T05:43:29.953Z,13.44
2023-01-19T05:45:56.952Z,13.41
2023-01-19T05:48:24.026Z,13.41
2023-01-19T05:50:51.019Z,13.40
2023-01-19T05:53:17.982Z,13.42
2023-01-19T05:55:45.142Z,13.45
2023-01-19T05:58:12.224Z,13.42
2023-01-19T06:00:39.178Z,13.41
2023-01-19T06:03:06.797Z,13.47
2023-01-19T06:05:34.142Z,13.51
2023-01-19T06:08:02.173Z,13.56
2023-01-19T06:10:29.187Z,13.56
2023-01-19T06:12:56.223Z,13.55
2023-01-19T06:15:23.258Z,13.49
2023-01-19T06:17:50.279Z,13.49
2023-01-19T06:20:17.545Z,13.45
2023-01-19T06:22:44.550Z,13.51
2023-01-19T06:25:13.211Z,13.51
2023-01-19T06:27:44.609Z,13.47
2023-01-19T06:30:12.647Z,13.51
2023-01-19T06:32:42.479Z,13.53
2023-01-19T06:35:11.277Z,13.54
2023-01-19T06:37:38.326Z,13.56
2023-01-19T06:40:06.812Z,13.58
2023-01-19T06:42:34.666Z,13.59
2023-01-19T06:45:01.780Z,13.60
2023-01-19T06:47:28.864Z,13.62
2023-01-19T06:49:56.125Z,13.61
2023-01-19T06:52:23.226Z,13.59
2023-01-19T06:54:50.552Z,13.62
2023-01-19T06:57:17.741Z,13.63
2023-01-19T06:59:45.049Z,13.65
2023-01-19T07:02:26.336Z,13.69
2023-01-19T07:04:56.007Z,13.71
2023-01-19T07:07:23.650Z,13.70
2023-01-19T07:09:53.838Z,13.74
2023-01-19T07:12:22.043Z,13.76
2023-01-19T07:14:50.158Z,13.78
2023-01-19T07:17:17.331Z,13.84
2023-01-19T07:19:44.676Z,13.91
2023-01-19T07:22:11.826Z,13.93
2023-01-19T07:24:39.099Z,14.01
2023-01-19T07:27:06.148Z,14.08
2023-01-19T07:29:33.141Z,14.15
2023-01-19T07:32:00.297Z,14.25
2023-01-19T07:34:27.245Z,14.31
2023-01-19T07:36:56.404Z,14.35
2023-01-19T07:39:24.027Z,14.44
2023-01-19T07:41:51.189Z,14.43
2023-01-19T07:44:18.888Z,14.50
2023-01-19T07:46:45.922Z,14.56
2023-01-19T07:49:13.046Z,14.60
2023-01-19T07:51:40.053Z,14.66
2023-01-19T07:54:08.668Z,14.70
2023-01-19T07:56:38.817Z,14.76
2023-01-19T07:59:07.581Z,14.85
2023-01-19T08:01:34.928Z,14.88
2023-01-19T08:04:02.092Z,14.94
2023-01-19T08:06:39.890Z,14.96
2023-01-19T08:09:07.337Z,15.02
2023-01-19T08:11:34.505Z,15.07
2023-01-19T08:14:01.656Z,15.15
2023-01-19T08:16:28.654Z,15.21
2023-01-19T08:18:55.665Z,15.21
2023-01-19T08:21:22.909Z,15.28
2023-01-19T08:23:54.433Z,15.33
2023-01-19T08:26:39.165Z,15.39
2023-01-19T08:29:06.274Z,15.48
2023-01-19T08:31:33.564Z,15.53
2023-01-19T08:34:00.783Z,15.55
2023-01-19T08:36:28.017Z,15.60
2023-01-19T08:38:55.035Z,15.65
2023-01-19T08:41:22.545Z,15.68
2023-01-19T08:43:50.048Z,15.76
2023-01-19T08:46:17.824Z,15.81
2023-01-19T08:48:51.409Z,15.81
2023-01-19T08:51:22.910Z,15.84
2023-01-19T08:53:50.088Z,15.85
2023-01-19T08:56:20.454Z,15.86
2023-01-19T08:58:53.627Z,15.92
2023-01-19T09:01:30.481Z,15.95
2023-01-19T09:03:57.641Z,15.92
2023-01-19T09:06:25.620Z,15.78
2023-01-19T09:08:52.725Z,15.66
2023-01-19T09:11:20.067Z,15.67
2023-01-19T09:13:47.081Z,15.64
2023-01-19T09:16:16.137Z,15.60
2023-01-19T09:18:43.278Z,15.59
2023-01-19T09:21:10.429Z,15.56
2023-01-19T09:23:37.590Z,15.56
2023-01-19T09:26:06.335Z,15.53
2023-01-19T09:28:34.225Z,15.60
2023-01-19T09:31:06.203Z,15.64
2023-01-19T09:33:34.043Z,15.60
2023-01-19T09:36:02.249Z,15.70
2023-01-19T09:38:33.250Z,15.72
2023-01-19T09:41:00.506Z,15.67
2023-01-19T09:44:00.705Z,15.64
2023-01-19T09:46:35.396Z,15.70
2023-01-19T09:49:06.980Z,15.79
2023-01-19T09:51:38.132Z,15.95
2023-01-19T09:54:29.529Z,16.16
2023-01-19T09:56:56.487Z,16.24
2023-01-19T09:59:25.932Z,16.18
2023-01-19T10:02:05.923Z,16.19
2023-01-19T10:05:13.605Z,16.17
2023-01-19T10:08:25.644Z,16.12
2023-01-19T10:10:55.287Z,16.25
2023-01-19T10:13:54.569Z,16.36
2023-01-19T10:16:51.359Z,16.62
2023-01-19T10:19:26.093Z,16.72
2023-01-19T10:21:56.207Z,16.73
2023-01-19T10:24:29.399Z,16.75
2023-01-19T10:26:57.223Z,16.84
2023-01-19T10:29:39.423Z,16.83
2023-01-19T10:32:14.273Z,16.77
2023-01-19T10:34:41.932Z,16.72
2023-01-19T10:37:25.388Z,16.61
2023-01-19T10:39:55.750Z,16.55
2023-01-19T10:42:23.180Z,16.49
2023-01-19T10:44:50.575Z,16.46
2023-01-19T10:47:23.627Z,16.42
2023-01-19T10:49:50.940Z,16.47
2023-01-19T10:52:37.170Z,16.53
2023-01-19T10:55:07.202Z,16.62
2023-01-19T10:57:41.127Z,16.65
2023-01-19T11:00:38.633Z,16.59
2023-01-19T11:03:25.030Z,16.37
2023-01-19T11:05:52.351Z,16.23
2023-01-19T11:08:30.552Z,16.13
2023-01-19T11:11:03.986Z,16.09
2023-01-19T11:13:32.267Z,16.03
2023-01-19T11:16:30.587Z,16.06
2023-01-19T11:18:58.956Z,16.12
2023-01-19T11:21:27.965Z,16.16
2023-01-19T11:24:00.914Z,16.27
2023-01-19T11:26:33.671Z,16.40
2023-01-19T11:29:03.534Z,16.53
2023-01-19T11:31:35.541Z,16.51
2023-01-19T11:34:05.690Z,16.40
2023-01-19T11:36:36.006Z,16.35
2023-01-19T11:39:24.552Z,16.31
2023-01-19T11:41:55.684Z,16.23
2023-01-19T11:44:25.506Z,16.22
2023-01-19T11:46:56.966Z,16.16
2023-01-19T11:49:39.182Z,16.13
2023-01-19T11:52:26.158Z,16.18
2023-01-19T11:55:03.922Z,16.20
2023-01-19T11:57:30.917Z,16.25
2023-01-19T12:00:17.852Z,16.36
2023-01-19T12:02:47.907Z,16.51
2023-01-19T12:05:20.215Z,16.57
2023-01-19T12:07:49.582Z,16.62
2023-01-19T12:10:31.368Z,16.67
2023-01-19T12:12:59.601Z,16.70
2023-01-19T12:15:39.290Z,16.70
2023-01-19T12:18:12.748Z,16.59
2023-01-19T12:20:47.599Z,16.51
2023-01-19T12:24:01.585Z,16.49
2023-01-19T12:26:52.633Z,16.37
2023-01-19T12:29:22.665Z,16.38
2023-01-19T12:32:18.375Z,16.46
2023-01-19T12:34:50.251Z,16.52
2023-01-19T12:37:47.891Z,16.56
2023-01-19T12:40:28.385Z,16.53
2023-01-19T12:43:05.614Z,16.51
2023-01-19T12:45:35.433Z,16.53
2023-01-19T12:48:04.642Z,16.52
2023-01-19T12:50:38.110Z,16.56
2023-01-19T12:53:16.137Z,16.61
2023-01-19T12:55:46.900Z,16.64
2023-01-19T12:58:21.818Z,16.60
2023-01-19T13:00:50.835Z,16.56
2023-01-19T13:03:45.940Z,16.55
2023-01-19T13:06:13.494Z,16.52
2023-01-19T13:09:00.492Z,16.51
2023-01-19T13:11:32.617Z,16.50
2023-01-19T13:14:34.576Z,16.47
2023-01-19T13:17:08.286Z,16.50
2023-01-19T13:19:52.353Z,16.44
2023-01-19T13:23:07.106Z,16.44
2023-01-19T13:25:35.825Z,16.46
2023-01-19T13:28:09.529Z,16.43
2023-01-19T13:30:37.679Z,16.54
2023-01-19T13:33:15.729Z,16.72
2023-01-19T13:35:51.656Z,16.98
2023-01-19T13:38:19.488Z,17.12
2023-01-19T13:40:47.078Z,17.30
2023-01-19T13:43:22.168Z,17.51
2023-01-19T13:45:53.471Z,17.67
2023-01-19T13:48:22.565Z,17.77
2023-01-19T13:51:28.912Z,17.95
2023-01-19T13:53:57.579Z,18.10
2023-01-19T13:56:27.956Z,18.21
2023-01-19T13:59:10.955Z,18.23
2023-01-19T14:01:40.011Z,18.13
2023-01-19T14:04:25.711Z,18.17
2023-01-19T14:06:55.835Z,18.21
2023-01-19T14:09:23.457Z,17.99
2023-01-19T14:12:14.453Z,17.62
2023-01-19T14:14:43.745Z,17.26
2023-01-19T14:17:28.177Z,16.98
2023-01-19T14:20:01.128Z,16.78
2023-01-19T14:22:43.630Z,16.61
2023-01-19T14:25:31.972Z,16.43
2023-01-19T14:28:35.630Z,16.32
2023-01-19T14:31:18.112Z,16.21
2023-01-19T14:33:47.234Z,16.14
2023-01-19T14:36:36.469Z,16.06
2023-01-19T14:39:04.025Z,15.99
2023-01-19T14:41:38.938Z,15.94
2023-01-19T14:44:10.847Z,15.89
2023-01-19T14:46:38.867Z,15.77
2023-01-19T14:49:07.185Z,15.70
2023-01-19T14:51:34.527Z,15.59
2023-01-19T14:54:03.021Z,15.53
2023-01-19T14:56:32.340Z,15.50
2023-01-19T14:59:01.845Z,15.47
2023-01-19T15:01:29.433Z,15.46
2023-01-19T15:03:59.607Z,15.46
2023-01-19T15:06:26.956Z,15.44
2023-01-19T15:08:54.576Z,15.42
2023-01-19T15:11:34.201Z,15.38
2023-01-19T15:14:02.555Z,15.38
2023-01-19T15:16:39.583Z,15.35
2023-01-19T15:19:06.675Z,15.27
2023-01-19T15:21:33.666Z,15.21
2023-01-19T15:24:01.155Z,15.07
2023-01-19T15:26:28.165Z,14.97
2023-01-19T15:28:56.693Z,14.88
2023-01-19T15:31:26.212Z,14.81
2023-01-19T15:33:53.571Z,14.77
2023-01-19T15:36:22.411Z,14.74
2023-01-19T15:38:51.367Z,14.72
2023-01-19T15:41:25.045Z,14.72
2023-01-19T15:43:52.300Z,14.68
2023-01-19T15:46:20.971Z,14.62
2023-01-19T15:48:48.715Z,14.54
2023-01-19T15:51:19.491Z,14.49
2023-01-19T15:53:47.204Z,14.40
2023-01-19T15:56:16.578Z,14.35
2023-01-19T15:58:44.188Z,14.26
2023-01-19T16:01:16.878Z,14.17
2023-01-19T16:03:44.619Z,14.11
2023-01-19T16:06:13.138Z,14.08
2023-01-19T16:08:40.368Z,14.04
2023-01-19T16:11:14.206Z,14.03
2023-01-19T16:13:44.128Z,13.98
2023-01-19T16:16:17.423Z,13.96
2023-01-19T16:18:44.902Z,13.90
2023-01-19T16:21:12.135Z,13.82
2023-01-19T16:23:39.184Z,13.73
2023-01-19T16:26:09.074Z,13.66
2023-01-19T16:28:38.460Z,13.55
2023-01-19T16:31:05.687Z,13.45
2023-01-19T16:33:33.387Z,13.24
2023-01-19T16:36:19.463Z,12.98
2023-01-19T16:38:47.680Z,12.72
2023-01-19T16:41:14.633Z,12.51
2023-01-19T16:43:42.210Z,12.38
2023-01-19T16:46:18.621Z,12.27
2023-01-19T16:48:45.607Z,12.15
2023-01-19T16:51:14.611Z,12.09
2023-01-19T16:53:42.943Z,12.07
2023-01-19T16:56:13.952Z,12.02
2023-01-19T16:58:43.422Z,11.95
2023-01-19T17:01:17.243Z,11.86
2023-01-19T17:03:45.719Z,11.72
2023-01-19T17:06:15.761Z,11.52
2023-01-19T17:08:43.666Z,11.38
2023-01-19T17:11:32.488Z,11.24
2023-01-19T17:14:17.126Z,11.04
2023-01-19T17:16:46.138Z,10.94
2023-01-19T17:19:16.895Z,10.84
2023-01-19T17:21:46.136Z,10.76
2023-01-19T17:24:13.160Z,10.69
2023-01-19T17:26:40.275Z,10.65
2023-01-19T17:29:10.720Z,10.64
2023-01-19T17:31:52.451Z,10.68
2023-01-19T17:34:21.055Z,10.58
2023-01-19T17:36:51.293Z,10.52
2023-01-19T17:39:20.102Z,10.49
2023-01-19T17:41:49.450Z,10.49
2023-01-19T17:44:19.229Z,10.50
2023-01-19T17:46:46.998Z,10.50
2023-01-19T17:49:13.895Z,10.53
2023-01-19T17:51:40.838Z,10.52
2023-01-19T17:54:07.816Z,10.47
2023-01-19T17:56:37.690Z,10.44
2023-01-19T17:59:07.502Z,10.40
2023-01-19T18:01:38.403Z,10.34
2023-01-19T18:04:06.325Z,10.30
2023-01-19T18:06:33.908Z,10.25
2023-01-19T18:09:00.861Z,10.21
2023-01-19T18:11:28.074Z,10.16
2023-01-19T18:13:55.162Z,10.09
2023-01-19T18:16:30.409Z,10.02
2023-01-19T18:18:58.279Z,9.93
2023-01-19T18:21:28.318Z,9.88
2023-01-19T18:26:49.136Z,9.83
2023-01-19T18:29:20.289Z,9.80
2023-01-19T18:31:47.216Z,9.75
2023-01-19T18:34:15.779Z,9.67
2023-01-19T18:36:42.842Z,9.48
2023-01-19T18:39:09.932Z,9.32
2023-01-19T18:41:42.364Z,9.22
2023-01-19T18:44:10.368Z,9.11
2023-01-19T18:46:39.209Z,9.05
2023-01-19T18:49:06.670Z,8.98
2023-01-19T18:51:33.798Z,8.95
2023-01-19T18:54:00.864Z,8.91
2023-01-19T18:56:28.170Z,8.87
2023-01-19T18:58:55.341Z,8.83
2023-01-19T19:01:38.342Z,8.82
2023-01-19T19:04:05.887Z,8.78
2023-01-19T19:06:33.027Z,8.80
2023-01-19T19:09:00.164Z,8.76
2023-01-19T19:11:28.016Z,8.73
2023-01-19T19:14:01.022Z,8.65
2023-01-19T19:16:29.850Z,8.62
2023-01-19T19:18:56.992Z,8.56
2023-01-19T19:21:25.723Z,8.48
2023-01-19T19:23:57.301Z,8.40
2023-01-19T19:26:25.777Z,8.36
2023-01-19T19:28:52.864Z,8.33
2023-01-19T19:31:22.408Z,8.29
2023-01-19T19:33:51.433Z,8.21
2023-01-19T19:36:20.177Z,8.17
2023-01-19T19:38:55.825Z,8.12
2023-01-19T19:41:25.217Z,8.14
2023-01-19T19:43:52.129Z,8.11
2023-01-19T19:46:20.559Z,8.14
2023-01-19T19:48:51.177Z,8.23
2023-01-19T19:51:22.795Z,8.30
2023-01-19T19:53:51.933Z,8.36
2023-01-19T19:56:21.647Z,8.40
2023-01-19T19:59:03.402Z,8.47
2023-01-19T20:01:33.715Z,8.53
2023-01-19T20:04:07.322Z,8.52
2023-01-19T20:06:45.548Z,8.58
2023-01-19T20:09:14.286Z,8.59
2023-01-19T20:11:42.758Z,8.63
2023-01-19T20:14:11.875Z,8.65
2023-01-19T20:16:39.492Z,8.65
2023-01-19T20:19:06.911Z,8.58
2023-01-19T20:21:36.584Z,8.57
2023-01-19T20:24:07.036Z,8.55
2023-01-19T20:26:36.588Z,8.56
2023-01-19T20:29:08.415Z,8.51
2023-01-19T20:31:42.220Z,8.54
2023-01-19T20:34:17.305Z,8.56
2023-01-19T20:36:49.887Z,8.56
2023-01-19T20:39:18.324Z,8.54
2023-01-19T20:41:45.834Z,8.53
2023-01-19T20:44:15.632Z,8.53
2023-01-19T20:46:42.710Z,8.56
2023-01-19T20:49:10.384Z,8.57
2023-01-19T20:51:40.053Z,8.61
2023-01-19T20:54:07.185Z,8.56
2023-01-19T20:56:34.175Z,8.52
2023-01-19T20:59:02.333Z,8.51
2023-01-19T21:01:29.382Z,8.52
2023-01-19T21:03:56.523Z,8.58
2023-01-19T21:06:23.509Z,8.61
2023-01-19T21:08:50.894Z,8.63
2023-01-19T21:11:21.069Z,8.69
2023-01-19T21:13:50.742Z,8.67
2023-01-19T21:16:17.770Z,8.59
2023-01-19T21:18:44.759Z,8.52
2023-01-19T21:21:31.875Z,8.41
2023-01-19T21:24:01.035Z,8.32
2023-01-19T21:26:30.366Z,8.20
2023-01-19T21:28:58.468Z,8.14
2023-01-19T21:31:27.719Z,8.09
2023-01-19T21:33:55.752Z,8.03
2023-01-19T21:36:23.086Z,8.02
2023-01-19T21:38:51.647Z,8.04
2023-01-19T21:41:19.127Z,8.09
2023-01-19T21:43:46.456Z,8.12
2023-01-19T21:46:29.629Z,8.15
2023-01-19T21:48:58.189Z,8.21
2023-01-19T21:51:25.291Z,8.22
2023-01-19T21:53:52.699Z,8.21
2023-01-19T21:56:19.696Z,8.17
2023-01-19T21:58:47.462Z,8.15
2023-01-19T22:01:14.525Z,8.14
2023-01-19T22:03:42.214Z,8.21
2023-01-19T22:06:12.435Z,8.38
2023-01-19T22:08:40.141Z,8.40
2023-01-19T22:11:09.440Z,8.33
2023-01-19T22:13:40.827Z,8.31
2023-01-19T22:16:15.118Z,8.30
2023-01-19T22:18:44.605Z,8.30
2023-01-19T22:21:19.464Z,8.36
2023-01-19T22:23:54.620Z,8.38
2023-01-19T22:26:34.981Z,8.39
2023-01-19T22:29:02.504Z,8.44
2023-01-19T22:31:30.695Z,8.46
2023-01-19T22:33:58.103Z,8.44
2023-01-19T22:36:30.436Z,8.45
2023-01-19T22:39:02.341Z,8.45
2023-01-19T22:41:41.039Z,8.48
2023-01-19T22:44:12.992Z,8.48
2023-01-19T22:46:40.098Z,8.47
2023-01-19T22:49:08.468Z,8.51
2023-01-19T22:51:36.242Z,8.57
2023-01-19T22:54:03.902Z,8.62
2023-01-19T22:56:34.292Z,8.68
2023-01-19T22:59:02.390Z,8.74
2023-01-19T23:01:33.858Z,8.79
2023-01-19T23:04:02.342Z,8.83
2023-01-19T23:06:31.841Z,8.88
2023-01-19T23:09:00.738Z,8.91
2023-01-19T23:11:35.733Z,8.92
2023-01-19T23:14:03.420Z,8.93
2023-01-19T23:16:30.492Z,8.95
2023-01-19T23:18:59.973Z,8.97
2023-01-19T23:21:29.581Z,9.00
2023-01-19T23:24:01.878Z,9.07
2023-01-19T23:26:30.959Z,9.21
2023-01-19T23:29:01.900Z,9.10
2023-01-19T23:31:49.442Z,8.85
2023-01-19T23:34:17.569Z,8.74
2023-01-19T23:36:45.297Z,8.63
2023-01-19T23:39:17.851Z,8.38
2023-01-19T23:41:45.181Z,8.19
2023-01-19T23:44:26.938Z,8.09
2023-01-19T23:46:53.908Z,7.97
2023-01-19T23:49:20.897Z,7.88
2023-01-19T23:51:47.858Z,7.84
2023-01-19T23:54:14.896Z,7.79
2023-01-19T23:56:42.921Z,7.73
2023-01-19T23:59:12.601Z,7.62
